Time;durP1;ratioP1;P1;durP2;ratioP2;P2;SDS_P1;SDS_P2;PMS_P1;PMS_P2;Temp;Humidity;BMP_temperature;BMP_pressure;BME280_temperature;BME280_humidity;BME280_pressure;Samples;Min_cycle;Max_cycle;Signal;HPM_P1;HPM_P2
2022/03/15 00:00:39;;;;;;;;;11.67;9.33;;;;;12.13;52.95;102025.47;5058874;28;45211;-69
2022/03/15 00:03:04;;;;;;;;;7.00;7.00;;;;;11.82;52.81;101955.13;5059136;28;45442;-70
2022/03/15 00:05:30;;;;;;;;;12.33;9.00;;;;;11.98;52.56;101977.88;5055106;28;45933;-69
2022/03/15 00:07:56;;;;;;;;;10.00;7.00;;;;;12.20;53.08;102007.16;5057628;28;45378;-68
2022/03/15 00:10:22;;;;;;;;;8.33;7.00;;;;;12.23;52.49;102009.59;5057746;28;45383;-67
2022/03/15 00:12:49;;;;;;;;;7.00;7.00;;;;;12.03;52.35;101963.22;5058701;28;45411;-67
2022/03/15 00:15:15;;;;;;;;;8.67;8.00;;;;;12.33;52.03;102002.53;5052855;28;45943;-68
2022/03/15 00:17:42;;;;;;;;;10.67;8.00;;;;;12.06;52.83;101970.13;5039449;28;45267;-68
2022/03/15 00:20:10;;;;;;;;;8.00;6.33;;;;;11.77;52.70;101943.94;5058549;28;45339;-66
2022/03/15 00:22:37;;;;;;;;;6.33;5.00;;;;;12.05;53.06;101995.94;5058612;28;45526;-68
2022/03/15 00:25:05;;;;;;;;;8.67;7.67;;;;;11.81;53.32;101964.09;5057822;28;46568;-68
2022/03/15 00:27:31;;;;;;;;;9.33;8.67;;;;;11.99;53.35;101992.88;5058199;28;45299;-68
2022/03/15 00:29:57;;;;;;;;;7.67;7.67;;;;;11.95;53.43;101981.63;5058281;28;45332;-68
2022/03/15 00:32:23;;;;;;;;;8.00;8.00;;;;;12.11;53.58;102000.75;5058493;28;45448;-69
2022/03/15 00:34:49;;;;;;;;;9.33;7.00;;;;;11.89;53.13;101942.16;5057832;28;45592;-68
2022/03/15 00:37:14;;;;;;;;;9.00;8.00;;;;;12.25;53.11;102002.31;5058214;28;45326;-68
2022/03/15 00:39:41;;;;;;;;;9.00;8.00;;;;;12.29;52.36;101993.09;5058349;28;45169;-68
2022/03/15 00:42:07;;;;;;;;;9.00;9.00;;;;;12.28;52.80;102001.22;5054306;28;45518;-68
2022/03/15 00:44:32;;;;;;;;;6.00;5.33;;;;;12.09;52.74;101953.88;5036473;28;48436;-70
2022/03/15 00:46:58;;;;;;;;;8.00;6.67;;;;;12.25;52.51;101986.31;5036516;28;45588;-67
2022/03/15 00:49:23;;;;;;;;;8.00;8.00;;;;;12.25;52.71;101967.66;5037995;28;45356;-68
2022/03/15 00:51:49;;;;;;;;;8.33;8.33;;;;;12.41;52.38;101981.44;5039161;28;45468;-68
2022/03/15 00:54:14;;;;;;;;;10.00;6.00;;;;;12.33;52.33;101961.69;5039324;28;45443;-69
2022/03/15 00:56:40;;;;;;;;;10.00;7.00;;;;;12.49;52.53;101983.47;5037762;28;45355;-67
2022/03/15 00:59:05;;;;;;;;;9.33;8.00;;;;;12.46;52.12;101979.25;5038178;28;45454;-68
2022/03/15 01:01:31;;;;;;;;;10.00;9.00;;;;;12.43;52.33;101974.16;5038048;28;45233;-69
2022/03/15 01:03:57;;;;;;;;;7.00;5.00;;;;;12.41;52.38;101952.09;5036205;28;47550;-69
2022/03/15 01:06:23;;;;;;;;;8.33;7.00;;;;;12.53;52.64;101968.06;5052145;28;45465;-68
2022/03/15 01:08:48;;;;;;;;;11.67;10.00;;;;;12.58;52.14;101971.19;5057923;28;45644;-68
2022/03/15 01:11:13;;;;;;;;;11.00;8.00;;;;;12.45;52.48;101950.03;5057927;28;45468;-69
2022/03/15 01:13:39;;;;;;;;;9.33;8.33;;;;;12.58;52.28;101972.03;5056670;28;46274;-69
2022/03/15 01:16:04;;;;;;;;;12.33;8.67;;;;;12.40;52.79;101941.53;5045350;28;45458;-69
2022/03/15 01:18:30;;;;;;;;;11.00;7.33;;;;;12.49;52.60;101952.31;5036292;28;45485;-68
2022/03/15 01:20:56;;;;;;;;;9.00;9.00;;;;;12.51;52.42;101954.00;5038124;28;45398;-69
2022/03/15 01:23:21;;;;;;;;;7.33;7.33;;;;;12.43;53.08;101955.50;5036116;28;47997;-66
2022/03/15 01:25:47;;;;;;;;;8.67;8.67;;;;;12.42;52.95;101945.78;5046906;28;45315;-67
2022/03/15 01:28:13;;;;;;;;;11.67;7.67;;;;;11.25;52.88;101737.75;5061006;28;45422;-68
2022/03/15 01:30:38;;;;;;;;;9.33;8.00;;;;;12.53;51.96;101938.72;5057896;28;45522;-68
2022/03/15 01:33:04;;;;;;;;;8.33;8.33;;;;;12.54;52.63;101948.41;5056007;28;47438;-68
2022/03/15 01:35:29;;;;;;;;;7.00;7.00;;;;;12.58;52.69;101949.84;5056266;28;45489;-70
2022/03/15 01:37:55;;;;;;;;;12.00;9.00;;;;;12.40;52.99;101918.38;5057328;28;45338;-68
2022/03/15 01:40:21;;;;;;;;;5.67;5.67;;;;;12.37;53.10;101915.97;5055802;28;45245;-67
2022/03/15 01:42:46;;;;;;;;;8.67;8.67;;;;;12.45;53.39;101942.88;5057345;28;46137;-68
2022/03/15 01:45:12;;;;;;;;;7.00;7.00;;;;;12.39;53.46;101923.84;5055408;28;45325;-68
2022/03/15 01:47:38;;;;;;;;;8.00;7.00;;;;;12.13;53.58;101881.53;5055891;28;45235;-69
2022/03/15 01:50:03;;;;;;;;;5.33;5.33;;;;;12.30;53.49;101908.63;5055964;28;45365;-69
2022/03/15 01:52:29;;;;;;;;;9.33;7.33;;;;;12.37;54.07;101921.31;5056680;28;45702;-69
2022/03/15 01:54:55;;;;;;;;;6.67;6.33;;;;;12.13;53.96;101878.84;5055451;28;45383;-67
2022/03/15 01:57:20;;;;;;;;;8.00;8.00;;;;;12.20;53.84;101881.84;5037068;28;45622;-67
2022/03/15 01:59:46;;;;;;;;;9.00;9.00;;;;;12.13;54.38;101873.53;5036464;28;46348;-68
2022/03/15 02:02:12;;;;;;;;;10.33;7.67;;;;;12.23;54.79;101886.09;5041992;28;46497;-68
2022/03/15 02:04:38;;;;;;;;;7.67;6.67;;;;;12.30;54.40;101897.94;5036136;28;46048;-68
2022/03/15 02:07:10;;;;;;;;;7.67;7.67;;;;;12.12;55.24;101877.16;5055749;28;46292;-66
2022/03/15 02:09:36;;;;;;;;;7.33;7.00;;;;;11.98;55.81;101855.28;5055656;28;45371;-69
2022/03/15 02:12:02;;;;;;;;;6.33;6.33;;;;;12.04;55.77;101860.97;5037601;28;46173;-67
2022/03/15 02:14:28;;;;;;;;;8.00;8.00;;;;;12.23;56.23;101892.28;5036541;28;45241;-68
2022/03/15 02:16:54;;;;;;;;;9.67;7.67;;;;;12.18;56.17;101879.31;5054004;28;45465;-68
2022/03/15 02:19:20;;;;;;;;;6.00;6.00;;;;;12.19;56.94;101880.16;5056936;28;45473;-68
2022/03/15 02:21:46;;;;;;;;;7.33;6.00;;;;;12.19;57.10;101881.00;5056647;28;45654;-66
2022/03/15 02:24:12;;;;;;;;;8.00;8.00;;;;;12.10;57.42;101871.13;5056489;28;45323;-67
2022/03/15 02:26:37;;;;;;;;;5.33;5.00;;;;;12.16;57.53;101881.25;5040950;28;45368;-67
2022/03/15 02:29:03;;;;;;;;;7.67;7.67;;;;;12.17;58.06;101866.09;5036561;28;45178;-68
2022/03/15 02:31:28;;;;;;;;;8.33;7.67;;;;;12.05;57.28;101849.31;5037910;28;45618;-68
2022/03/15 02:33:54;;;;;;;;;9.33;8.67;;;;;11.63;58.47;101763.09;5038581;28;45290;-69
2022/03/15 02:36:19;;;;;;;;;6.00;6.00;;;;;12.21;58.52;101851.53;5040260;28;45522;-68
2022/03/15 02:38:46;;;;;;;;;7.67;6.67;;;;;12.03;59.20;101829.09;5052366;28;45533;-68
2022/03/15 02:41:12;;;;;;;;;7.67;7.67;;;;;11.83;59.71;101815.59;5051619;28;46882;-68
2022/03/15 02:43:39;;;;;;;;;9.67;9.00;;;;;12.11;59.52;101851.47;5056085;28;45469;-68
2022/03/15 02:46:04;;;;;;;;;8.00;8.00;;;;;12.06;59.55;101844.84;5039668;28;45481;-67
2022/03/15 02:48:30;;;;;;;;;8.67;7.67;;;;;11.47;59.98;101749.31;5039924;28;45553;-67
2022/03/15 02:50:59;;;;;;;;;9.00;8.67;;;;;12.13;59.85;101854.00;5038132;28;46443;-68
2022/03/15 02:53:25;;;;;;;;;9.00;9.00;;;;;11.75;60.73;101795.84;5040667;28;45481;-67
2022/03/15 02:55:51;;;;;;;;;8.67;7.00;;;;;11.94;61.20;101845.84;5059773;28;45274;-66
2022/03/15 02:58:19;;;;;;;;;12.00;10.00;;;;;11.81;61.71;101812.22;5060080;28;45377;-68
2022/03/15 03:00:44;;;;;;;;;8.33;8.33;;;;;11.52;61.52;101763.09;5059796;28;46538;-68
2022/03/15 03:03:10;;;;;;;;;7.33;7.00;;;;;11.69;62.26;101781.22;5059451;28;46109;-69
2022/03/15 03:05:35;;;;;;;;;7.33;6.33;;;;;11.94;62.10;101822.69;5043843;28;45542;-69
2022/03/15 03:08:04;;;;;;;;;9.67;9.00;;;;;11.57;62.87;101764.41;5059867;28;45287;-68
2022/03/15 03:10:31;;;;;;;;;9.00;9.00;;;;;11.65;63.05;101766.47;5045300;28;46192;-68
2022/03/15 03:12:56;;;;;;;;;9.67;9.33;;;;;11.96;62.93;101830.56;5038184;28;45415;-69
2022/03/15 03:15:22;;;;;;;;;7.67;7.67;;;;;11.95;63.97;101828.88;5036230;28;45349;-68
2022/03/15 03:17:48;;;;;;;;;8.33;7.33;;;;;11.94;63.48;101830.69;5019635;28;45244;-68
2022/03/15 03:20:18;;;;;;;;;8.33;5.67;;;;;11.98;63.66;101820.63;5018989;28;47352;-68
2022/03/15 03:22:44;;;;;;;;;10.00;9.00;;;;;11.81;63.94;101785.59;5019287;28;45308;-68
2022/03/15 03:25:09;;;;;;;;;6.67;6.67;;;;;11.53;64.02;101733.69;5032334;28;45404;-70
2022/03/15 03:27:35;;;;;;;;;11.00;9.33;;;;;12.16;64.16;101821.75;5039466;28;45353;-68
2022/03/15 03:30:02;;;;;;;;;10.00;8.67;;;;;12.17;63.88;101831.44;5038153;28;48881;-67
2022/03/15 03:32:28;;;;;;;;;9.33;8.33;;;;;10.28;64.51;101515.09;5039167;28;45475;-68
2022/03/15 03:34:54;;;;;;;;;10.00;10.00;;;;;11.66;65.43;101759.31;5050311;28;45378;-67
2022/03/15 03:37:20;;;;;;;;;8.00;8.00;;;;;12.11;65.61;101823.97;5059398;28;45533;-66
2022/03/15 03:39:46;;;;;;;;;12.67;11.33;;;;;12.16;64.99;101835.09;5051989;28;46469;-68
2022/03/15 03:42:12;;;;;;;;;9.33;8.33;;;;;11.34;65.59;101685.56;5038405;28;45258;-69
2022/03/15 03:44:38;;;;;;;;;8.00;7.00;;;;;12.22;65.04;101821.28;5046519;28;45434;-67
2022/03/15 03:47:04;;;;;;;;;8.67;8.67;;;;;12.18;65.70;101814.47;5059319;28;45592;-68
2022/03/15 03:49:30;;;;;;;;;10.33;10.33;;;;;11.75;66.47;101748.72;5058768;28;47554;-69
2022/03/15 03:51:56;;;;;;;;;9.33;8.00;;;;;12.15;67.04;101820.06;5058914;28;45876;-68
2022/03/15 03:54:23;;;;;;;;;12.67;10.33;;;;;12.06;67.42;101815.53;5047268;28;45427;-68
2022/03/15 03:56:48;;;;;;;;;9.00;8.67;;;;;12.00;67.70;101802.69;5034260;28;45558;-69
2022/03/15 03:59:14;;;;;;;;;8.33;8.33;;;;;12.04;68.22;101810.31;5018636;28;46370;-67
2022/03/15 04:01:40;;;;;;;;;11.67;10.00;;;;;12.01;68.66;101817.69;5033895;28;45399;-69
2022/03/15 04:04:06;;;;;;;;;9.00;8.00;;;;;11.94;68.59;101812.03;5027492;28;45363;-68
2022/03/15 04:06:32;;;;;;;;;9.00;9.00;;;;;11.97;68.23;101810.94;5059006;28;45456;-68
2022/03/15 04:08:59;;;;;;;;;11.00;9.67;;;;;11.99;67.99;101795.66;5056938;28;47666;-68
2022/03/15 04:11:24;;;;;;;;;11.67;10.67;;;;;11.91;68.50;101790.13;5057142;28;45313;-68
2022/03/15 04:13:50;;;;;;;;;11.33;10.67;;;;;12.04;68.65;101801.47;5058482;28;45224;-69
2022/03/15 04:16:16;;;;;;;;;12.00;10.00;;;;;12.04;68.58;101790.81;5057416;28;45194;-67
2022/03/15 04:18:41;;;;;;;;;14.67;12.67;;;;;12.06;68.48;101799.53;5058389;28;45904;-67
2022/03/15 04:21:07;;;;;;;;;10.00;8.67;;;;;12.00;68.24;101781.38;5050225;28;45334;-68
2022/03/15 04:23:32;;;;;;;;;12.33;11.00;;;;;12.10;68.54;101784.97;5038457;28;45431;-68
2022/03/15 04:25:57;;;;;;;;;9.33;7.67;;;;;11.35;68.61;101673.09;5038747;28;45521;-69
2022/03/15 04:28:23;;;;;;;;;10.33;10.33;;;;;11.90;68.77;101772.47;5036565;28;45959;-68
2022/03/15 04:30:48;;;;;;;;;9.67;9.67;;;;;11.82;69.45;101763.28;5037032;28;45407;-68
2022/03/15 04:33:14;;;;;;;;;10.00;10.00;;;;;12.00;69.12;101786.69;5038132;28;45413;-68
2022/03/15 04:35:40;;;;;;;;;8.33;8.33;;;;;11.97;69.45;101786.94;5041366;28;45402;-68
2022/03/15 04:38:05;;;;;;;;;10.00;10.00;;;;;11.85;69.50;101765.69;5057968;28;45406;-67
2022/03/15 04:40:31;;;;;;;;;12.00;12.00;;;;;11.82;70.04;101765.97;5048277;28;45411;-67
2022/03/15 04:42:57;;;;;;;;;13.33;9.33;;;;;11.86;69.79;101778.03;5056574;28;45321;-67
2022/03/15 04:45:24;;;;;;;;;12.00;11.33;;;;;11.87;70.04;101777.06;5056787;28;45308;-68
2022/03/15 04:47:50;;;;;;;;;11.00;10.67;;;;;11.90;70.24;101769.78;5056586;28;47546;-67
2022/03/15 04:50:15;;;;;;;;;13.33;9.00;;;;;11.86;70.60;101766.53;5057561;28;45527;-68
2022/03/15 04:52:41;;;;;;;;;14.00;11.00;;;;;11.87;70.29;101778.88;5055134;28;45424;-67
2022/03/15 04:55:07;;;;;;;;;12.00;12.00;;;;;11.16;70.48;101668.44;5056144;28;45549;-68
2022/03/15 04:57:33;;;;;;;;;10.33;9.67;;;;;11.83;70.95;101780.97;5057784;28;45771;-69
2022/03/15 04:59:58;;;;;;;;;13.67;11.67;;;;;11.82;70.70;101765.97;5057708;28;45469;-70
2022/03/15 05:02:24;;;;;;;;;9.33;9.00;;;;;11.88;70.65;101776.09;5040950;28;45467;-69
2022/03/15 05:04:51;;;;;;;;;10.00;10.00;;;;;11.89;70.55;101771.63;5037613;28;45367;-68
2022/03/15 05:07:16;;;;;;;;;13.00;12.00;;;;;11.80;70.57;101741.22;5037491;28;45699;-68
2022/03/15 05:12:26;;;;;;;;;10.67;9.00;;;;;11.95;71.33;101775.56;5039855;28;45458;-69
2022/03/15 05:14:51;;;;;;;;;12.00;10.67;;;;;11.93;71.20;101766.88;5037385;28;45505;-69
2022/03/15 05:17:18;;;;;;;;;12.67;12.67;;;;;12.00;71.17;101770.69;5037239;28;45866;-69
2022/03/15 05:19:44;;;;;;;;;13.00;10.33;;;;;11.93;71.50;101758.88;5035923;28;45333;-69
2022/03/15 05:22:09;;;;;;;;;10.67;10.67;;;;;11.92;72.25;101765.19;5037145;28;45224;-68
2022/03/15 05:24:35;;;;;;;;;9.00;9.00;;;;;11.87;71.87;101779.72;5037340;28;45591;-67
2022/03/15 05:27:00;;;;;;;;;12.00;12.00;;;;;11.87;71.32;101779.72;5036355;28;46208;-68
2022/03/15 05:29:26;;;;;;;;;11.00;10.00;;;;;11.62;71.61;101721.44;5036796;28;45322;-68
2022/03/15 05:31:51;;;;;;;;;12.00;12.00;;;;;11.95;71.53;101770.25;5047922;28;45473;-68
2022/03/15 05:34:17;;;;;;;;;11.00;11.00;;;;;11.89;71.94;101755.63;5057643;28;45552;-69
2022/03/15 05:36:43;;;;;;;;;12.33;11.00;;;;;11.87;72.01;101762.91;5057046;28;45718;-67
2022/03/15 05:39:09;;;;;;;;;11.33;10.33;;;;;12.03;71.53;101773.97;5056037;28;45505;-68
2022/03/15 05:41:35;;;;;;;;;12.00;11.00;;;;;12.02;72.19;101782.09;5056878;28;45872;-68
2022/03/15 05:44:00;;;;;;;;;6.67;6.67;;;;;11.97;71.46;101770.97;5057064;28;45283;-68
2022/03/15 05:46:26;;;;;;;;;14.67;11.33;;;;;11.80;71.75;101735.91;5046677;28;46038;-69
2022/03/15 05:48:52;;;;;;;;;11.33;10.00;;;;;11.79;71.57;101734.22;5036692;28;45273;-71
2022/03/15 05:51:18;;;;;;;;;10.33;9.33;;;;;12.03;71.70;101767.81;5046929;28;45673;-68
2022/03/15 05:53:44;;;;;;;;;13.00;11.67;;;;;12.09;71.99;101778.78;5055784;28;45339;-69
2022/03/15 05:56:10;;;;;;;;;12.67;11.00;;;;;11.87;71.62;101737.09;5055192;28;48605;-70
2022/03/15 05:58:36;;;;;;;;;11.00;9.67;;;;;11.64;71.76;101690.19;5051904;28;45241;-71
2022/03/15 06:01:01;;;;;;;;;12.67;12.67;;;;;12.12;71.17;101777.69;5035291;28;45618;-69
2022/03/15 06:03:27;;;;;;;;;10.67;10.67;;;;;12.08;71.25;101765.59;5036862;28;45525;-68
2022/03/15 06:05:52;;;;;;;;;13.67;12.67;;;;;12.13;71.90;101774.88;5033681;28;47701;-69
2022/03/15 06:08:18;;;;;;;;;12.00;8.67;;;;;12.07;72.30;101763.91;5034724;28;45285;-68
2022/03/15 06:10:43;;;;;;;;;11.33;11.33;;;;;11.98;71.77;101740.66;5042870;28;45470;-68
2022/03/15 06:13:09;;;;;;;;;10.67;10.00;;;;;12.04;72.16;101741.03;5042762;28;45510;-70
2022/03/15 06:15:34;;;;;;;;;12.00;12.00;;;;;11.87;71.67;101710.44;5054493;28;45540;-68
2022/03/15 06:18:01;;;;;;;;;12.00;12.00;;;;;12.08;72.05;101760.25;5056470;28;45529;-69
2022/03/15 06:20:27;;;;;;;;;14.33;14.00;;;;;12.17;72.37;101780.81;5054893;28;45695;-67
2022/03/15 06:22:54;;;;;;;;;15.33;14.33;;;;;12.34;72.26;101792.72;5056449;28;45620;-69
2022/03/15 06:25:20;;;;;;;;;12.33;12.33;;;;;12.40;72.17;101797.53;5054543;28;48227;-69
2022/03/15 06:27:46;;;;;;;;;13.67;13.67;;;;;12.23;71.50;101748.31;5055024;28;46066;-69
2022/03/15 06:30:12;;;;;;;;;14.00;14.00;;;;;12.34;71.04;101760.72;5056228;28;45292;-69
2022/03/15 06:32:38;;;;;;;;;14.33;14.33;;;;;12.57;70.76;101782.75;5056272;28;45413;-69
2022/03/15 06:35:06;;;;;;;;;13.33;12.00;;;;;12.04;71.28;101703.72;5055882;28;45793;-69
2022/03/15 06:37:32;;;;;;;;;20.00;16.67;;;;;12.51;71.05;101793.97;5055976;28;45398;-68
2022/03/15 06:39:57;;;;;;;;;18.00;16.33;;;;;12.52;71.17;101780.47;5037293;28;45543;-70
2022/03/15 06:42:23;;;;;;;;;18.67;16.67;;;;;12.40;71.72;101766.34;5053055;28;45310;-69
2022/03/15 06:44:49;;;;;;;;;14.33;14.33;;;;;12.37;71.55;101761.28;5052807;28;46914;-68
2022/03/15 06:47:14;;;;;;;;;11.67;11.67;;;;;11.96;71.53;101705.31;5055169;28;45453;-69
2022/03/15 06:49:39;;;;;;;;;13.00;11.67;;;;;12.44;71.33;101773.16;5044462;28;45539;-68
2022/03/15 06:52:05;;;;;;;;;16.00;14.67;;;;;12.59;71.08;101792.31;5035975;28;45422;-68
2022/03/15 06:54:31;;;;;;;;;15.00;11.67;;;;;12.45;71.64;101774.00;5041293;28;45240;-70
2022/03/15 06:56:57;;;;;;;;;16.33;16.33;;;;;12.30;71.17;101744.13;5044397;28;45667;-67
2022/03/15 06:59:23;;;;;;;;;17.33;15.33;;;;;12.53;71.01;101774.16;5039759;28;45317;-68
2022/03/15 07:01:49;;;;;;;;;16.67;16.00;;;;;12.14;70.66;101695.75;5034336;28;45510;-68
2022/03/15 07:04:14;;;;;;;;;16.67;16.00;;;;;12.11;70.94;101696.88;5034097;28;46124;-68
2022/03/15 07:06:40;;;;;;;;;17.00;17.00;;;;;12.56;71.17;101767.72;5045604;28;45557;-69
2022/03/15 07:09:05;;;;;;;;;22.67;18.67;;;;;12.61;71.39;101768.16;5038391;28;45562;-69
2022/03/15 07:11:31;;;;;;;;;20.33;19.00;;;;;12.61;71.16;101785.00;5037118;28;45383;-66
2022/03/15 07:13:57;;;;;;;;;22.00;20.00;;;;;12.63;71.43;101782.25;5037780;28;48256;-72
2022/03/15 07:16:23;;;;;;;;;15.00;14.00;;;;;12.58;71.12;101779.09;5035875;28;45549;-68
2022/03/15 07:18:48;;;;;;;;;18.67;17.67;;;;;12.63;71.10;101790.25;5049284;28;45657;-69
2022/03/15 07:21:13;;;;;;;;;17.33;17.33;;;;;12.55;70.99;101790.03;5052962;28;45513;-70
2022/03/15 07:23:39;;;;;;;;;14.00;11.33;;;;;12.52;71.17;101780.47;5057336;28;46347;-71
2022/03/15 07:26:04;;;;;;;;;17.00;14.33;;;;;12.48;71.19;101774.56;5059151;28;45470;-68
2022/03/15 07:28:32;;;;;;;;;19.67;18.67;;;;;12.48;70.74;101774.56;5042488;28;45513;-67
2022/03/15 07:30:57;;;;;;;;;21.33;21.33;;;;;12.46;71.18;101765.00;5039357;28;45276;-68
2022/03/15 07:33:22;;;;;;;;;19.67;19.00;;;;;12.65;70.95;101796.28;5038600;28;46228;-68
2022/03/15 07:35:48;;;;;;;;;18.67;18.67;;;;;12.52;70.89;101779.63;5038853;28;45491;-68
2022/03/15 07:38:17;;;;;;;;;23.33;21.67;;;;;12.61;70.98;101792.16;5038523;28;45287;-69
2022/03/15 07:40:46;;;;;;;;;16.67;16.67;;;;;12.43;71.46;101765.28;5039043;28;45448;-71
2022/03/15 07:43:11;;;;;;;;;20.00;20.00;;;;;12.24;71.28;101731.34;5056359;28;46534;-67
2022/03/15 07:45:37;;;;;;;;;17.00;17.00;;;;;12.37;71.50;101750.63;5058472;28;45408;-68
2022/03/15 07:48:04;;;;;;;;;21.00;21.00;;;;;12.57;72.10;101782.75;5059047;28;45315;-69
2022/03/15 07:50:29;;;;;;;;;21.00;20.00;;;;;12.41;72.15;101777.88;5058887;28;45450;-67
2022/03/15 07:52:55;;;;;;;;;27.00;24.33;;;;;12.18;71.93;101743.34;5056898;28;46291;-72
2022/03/15 07:55:21;;;;;;;;;21.67;21.33;;;;;12.45;71.96;101779.31;5059090;28;45415;-68
2022/03/15 07:57:47;;;;;;;;;25.00;23.67;;;;;12.56;71.31;101773.06;5049593;28;45377;-67
2022/03/15 08:00:14;;;;;;;;;24.33;23.00;;;;;12.48;71.91;101763.91;5038132;28;45542;-69
2022/03/15 08:02:40;;;;;;;;;24.33;23.00;;;;;12.56;72.26;101773.91;5037076;28;48023;-69
2022/03/15 08:05:07;;;;;;;;;16.67;15.67;;;;;12.50;72.47;101763.78;5038595;28;45431;-69
2022/03/15 08:07:35;;;;;;;;;22.67;20.67;;;;;12.60;71.88;101774.47;5038605;28;45328;-69
2022/03/15 08:10:00;;;;;;;;;23.00;23.00;;;;;12.63;71.50;101763.56;5038662;28;45378;-69
2022/03/15 08:12:26;;;;;;;;;19.00;18.00;;;;;12.71;71.32;101763.75;5038187;28;46934;-73
2022/03/15 08:14:52;;;;;;;;;25.67;23.00;;;;;12.74;71.62;101774.16;5036625;28;45919;-68
2022/03/15 08:17:17;;;;;;;;;25.33;24.33;;;;;12.57;71.83;101756.06;5037011;28;45333;-70
2022/03/15 08:19:42;;;;;;;;;26.67;26.33;;;;;12.35;71.81;101731.25;5036776;28;45337;-69
2022/03/15 08:22:08;;;;;;;;;25.00;23.67;;;;;12.18;71.56;101697.19;5036632;28;48314;-69
2022/03/15 08:24:36;;;;;;;;;23.67;22.67;;;;;11.75;71.71;101622.69;5036807;28;45359;-69
2022/03/15 08:27:02;;;;;;;;;24.67;22.67;;;;;12.19;70.77;101682.88;5036837;28;45575;-66
2022/03/15 08:29:29;;;;;;;;;31.33;29.00;;;;;12.19;71.38;101689.06;5047465;28;45288;-67
2022/03/15 08:31:54;;;;;;;;;28.67;27.67;;;;;12.55;72.03;101750.03;5057979;28;45330;-67
2022/03/15 08:34:19;;;;;;;;;27.33;27.33;;;;;12.52;71.98;101761.81;5057948;28;45221;-72
2022/03/15 08:36:45;;;;;;;;;29.33;29.00;;;;;12.53;72.26;101750.16;5059213;28;45424;-71
2022/03/15 08:39:11;;;;;;;;;27.33;25.67;;;;;12.59;71.37;101746.13;5056777;28;45486;-74
2022/03/15 08:41:36;;;;;;;;;25.33;25.00;;;;;12.87;70.98;101777.44;5057799;28;45961;-79
2022/03/15 08:44:02;;;;;;;;;27.67;24.67;;;;;12.89;70.82;101790.66;5056819;28;45463;-76
2022/03/15 08:46:28;;;;;;;;;21.00;20.00;;;;;12.94;70.33;101793.75;5058216;28;45326;-68
2022/03/15 08:48:54;;;;;;;;;24.67;23.33;;;;;12.90;70.91;101774.50;5037624;28;45679;-68
2022/03/15 08:51:20;;;;;;;;;24.00;22.33;;;;;12.95;70.61;101760.75;5036266;28;48055;-67
2022/03/15 08:53:46;;;;;;;;;26.33;25.00;;;;;12.66;70.04;101723.28;5037537;28;45276;-69
2022/03/15 08:56:11;;;;;;;;;28.67;24.33;;;;;13.00;69.97;101780.72;5036288;28;45396;-69
2022/03/15 08:58:36;;;;;;;;;29.00;26.00;;;;;13.08;70.12;101802.25;5037483;28;45213;-67
2022/03/15 09:01:02;;;;;;;;;30.67;27.67;;;;;12.83;70.45;101762.69;5052150;28;47245;-69
2022/03/15 09:03:27;;;;;;;;;27.00;23.00;;;;;12.86;70.22;101767.75;5056149;28;45253;-68
2022/03/15 09:05:53;;;;;;;;;23.00;21.00;;;;;13.10;69.82;101780.78;5056686;28;45780;-69
2022/03/15 09:08:18;;;;;;;;;27.67;25.00;;;;;12.86;69.40;101733.06;5057834;28;45382;-69
2022/03/15 09:10:44;;;;;;;;;25.00;22.33;;;;;13.12;69.34;101785.97;5057622;28;45839;-69
2022/03/15 09:13:10;;;;;;;;;23.33;23.00;;;;;12.62;69.65;101695.19;5057755;28;45345;-68
2022/03/15 09:15:36;;;;;;;;;23.67;22.67;;;;;13.20;69.04;101803.03;5056175;28;45332;-68
2022/03/15 09:18:02;;;;;;;;;26.33;25.67;;;;;13.22;69.16;101794.91;5057796;28;45268;-69
2022/03/15 09:20:28;;;;;;;;;28.00;27.00;;;;;13.16;69.72;101774.03;5057192;28;45644;-69
2022/03/15 09:22:53;;;;;;;;;25.00;23.00;;;;;13.32;69.25;101801.09;5045669;28;45505;-70
2022/03/15 09:25:19;;;;;;;;;26.00;24.67;;;;;13.15;69.39;101769.66;5037119;28;45453;-68
2022/03/15 09:27:47;;;;;;;;;27.33;24.00;;;;;13.40;69.34;101803.94;5035758;28;45608;-69
2022/03/15 09:30:13;;;;;;;;;24.33;22.33;;;;;12.91;68.92;101714.81;5036825;28;45766;-69
2022/03/15 09:32:38;;;;;;;;;26.00;25.33;;;;;13.46;69.82;101795.41;5035663;28;46222;-69
2022/03/15 09:35:04;;;;;;;;;31.67;29.67;;;;;13.36;69.20;101763.31;5035541;28;45411;-70
2022/03/15 09:37:30;;;;;;;;;27.00;27.00;;;;;13.58;68.86;101788.94;5052846;28;45359;-69
2022/03/15 09:39:57;;;;;;;;;23.67;23.67;;;;;13.30;69.48;101747.00;5035723;28;47663;-69
2022/03/15 09:42:24;;;;;;;;;24.67;22.33;;;;;13.54;68.49;101771.50;5035397;28;45496;-68
2022/03/15 09:44:51;;;;;;;;;25.67;22.00;;;;;13.68;68.54;101789.81;5033103;28;45357;-70
2022/03/15 09:47:23;;;;;;;;;21.00;21.00;;;;;13.70;68.25;101798.53;5037108;28;45599;-68
2022/03/15 09:49:49;;;;;;;;;23.00;22.00;;;;;13.69;68.47;101785.31;5036648;28;46593;-69
2022/03/15 09:52:15;;;;;;;;;22.67;21.33;;;;;13.63;68.63;101775.19;5035170;28;46303;-69
2022/03/15 09:54:41;;;;;;;;;24.33;22.00;;;;;13.52;68.58;101749.41;5037008;28;45336;-69
2022/03/15 09:57:07;;;;;;;;;24.67;24.67;;;;;13.65;69.06;101767.88;5034412;28;45564;-69
2022/03/15 09:59:33;;;;;;;;;23.33;23.00;;;;;13.64;68.67;101768.84;5033237;28;46663;-68
2022/03/15 10:01:59;;;;;;;;;18.33;18.33;;;;;13.51;68.87;101753.06;5036719;28;45538;-70
2022/03/15 10:04:26;;;;;;;;;22.33;20.00;;;;;13.08;68.59;101676.78;5036411;28;45415;-70
2022/03/15 10:06:53;;;;;;;;;32.33;28.00;;;;;13.55;68.90;101765.16;5036680;28;45419;-69
2022/03/15 10:09:19;;;;;;;;;28.67;25.67;;;;;13.51;68.81;101745.06;5036355;28;46364;-70
2022/03/15 10:11:44;;;;;;;;;37.33;29.67;;;;;13.63;69.05;101768.00;5036701;28;45306;-69
2022/03/15 10:14:11;;;;;;;;;30.33;26.67;;;;;13.57;69.02;101763.19;5036947;28;45484;-69
2022/03/15 10:16:41;;;;;;;;;31.00;26.67;;;;;13.59;69.20;101755.03;5036843;28;45577;-69
2022/03/15 10:19:09;;;;;;;;;26.67;26.67;;;;;13.60;68.42;101754.06;5034759;28;47984;-68
2022/03/15 10:21:51;;;;;;;;;26.67;24.33;;;;;13.68;68.48;101773.78;5036390;28;45264;-68
2022/03/15 10:24:29;;;;;;;;;28.33;24.00;;;;;13.46;68.88;101741.97;5036745;28;45601;-69
2022/03/15 10:27:01;;;;;;;;;32.00;29.00;;;;;13.37;69.44;101748.97;5049511;28;45452;-68
2022/03/15 10:29:28;;;;;;;;;26.00;24.67;;;;;13.36;69.55;101746.44;5056122;28;45668;-66
2022/03/15 10:31:54;;;;;;;;;31.67;29.00;;;;;13.42;69.44;101748.56;5056228;28;45171;-68
2022/03/15 10:34:21;;;;;;;;;27.67;25.67;;;;;13.46;69.10;101733.94;5055537;28;45426;-69
2022/03/15 10:36:51;;;;;;;;;27.33;25.33;;;;;13.59;69.08;101744.34;5054423;28;45387;-68
2022/03/15 10:39:19;;;;;;;;;34.33;30.67;;;;;13.62;69.23;101736.94;5055593;28;45926;-67
2022/03/15 10:41:53;;;;;;;;;28.00;26.00;;;;;13.72;68.78;101754.78;5054609;28;45771;-68
2022/03/15 10:44:26;;;;;;;;;29.67;28.67;;;;;13.72;68.20;101749.44;5056207;28;45227;-66
2022/03/15 10:47:14;;;;;;;;;36.33;33.00;;;;;13.78;68.60;101754.22;5056565;28;45311;-67
2022/03/15 10:49:47;;;;;;;;;34.67;30.00;;;;;13.86;68.58;101755.22;5056169;28;45765;-67
2022/03/15 10:52:15;;;;;;;;;34.00;30.00;;;;;13.84;68.31;101743.81;5040350;28;45512;-67
2022/03/15 10:54:42;;;;;;;;;29.67;26.33;;;;;13.91;68.05;101744.09;5038393;28;45338;-68
2022/03/15 10:57:07;;;;;;;;;33.33;29.33;;;;;13.83;68.42;101730.59;5038212;28;45596;-68
2022/03/15 10:59:33;;;;;;;;;25.33;24.33;;;;;13.75;68.10;101699.22;5037689;28;48180;-68
2022/03/15 11:01:58;;;;;;;;;27.33;27.33;;;;;13.94;68.32;101725.09;5039459;28;45446;-67
2022/03/15 11:04:23;;;;;;;;;30.33;27.33;;;;;14.07;68.11;101740.84;5039143;28;45420;-67
2022/03/15 11:06:51;;;;;;;;;29.67;28.33;;;;;13.90;68.20;101710.31;5038999;28;46549;-69
2022/03/15 11:09:17;;;;;;;;;31.33;30.67;;;;;14.10;68.06;101724.53;5037820;28;45632;-68
2022/03/15 11:11:44;;;;;;;;;28.33;26.33;;;;;14.05;67.88;101727.63;5039086;28;45273;-68